sensor_id;sensor_type;location;lat;lon;timestamp;temperature;humidity
53844;DHT22;39744;53.314;5.710;2023-02-14T00:02:02;2.20;99.90
53844;DHT22;39744;53.314;5.710;2023-02-14T00:04:31;2.20;99.90
53844;DHT22;39744;53.314;5.710;2023-02-14T00:06:57;2.20;99.90
53844;DHT22;39744;53.314;5.710;2023-02-14T00:09:22;2.30;99.90
53844;DHT22;39744;53.314;5.710;2023-02-14T00:11:49;2.30;99.90
53844;DHT22;39744;53.314;5.710;2023-02-14T00:14:15;2.20;99.90
53844;DHT22;39744;53.314;5.710;2023-02-14T00:17:00;2.20;99.90
53844;DHT22;39744;53.314;5.710;2023-02-14T00:19:26;2.20;99.90
53844;DHT22;39744;53.314;5.710;2023-02-14T00:21:52;2.10;99.90
53844;DHT22;39744;53.314;5.710;2023-02-14T00:24:21;2.20;99.90
53844;DHT22;39744;53.314;5.710;2023-02-14T00:26:47;2.10;99.90
53844;DHT22;39744;53.314;5.710;2023-02-14T00:29:16;2.10;99.90
53844;DHT22;39744;53.314;5.710;2023-02-14T00:31:42;2.10;99.90
53844;DHT22;39744;53.314;5.710;2023-02-14T00:34:08;2.10;99.90
53844;DHT22;39744;53.314;5.710;2023-02-14T00:36:35;2.10;99.90
53844;DHT22;39744;53.314;5.710;2023-02-14T00:39:05;2.00;99.90
53844;DHT22;39744;53.314;5.710;2023-02-14T00:41:32;2.10;99.90
53844;DHT22;39744;53.314;5.710;2023-02-14T00:43:57;2.10;99.90
53844;DHT22;39744;53.314;5.710;2023-02-14T00:46:23;1.90;99.90
53844;DHT22;39744;53.314;5.710;2023-02-14T00:48:50;1.90;99.90
53844;DHT22;39744;53.314;5.710;2023-02-14T00:51:16;1.70;99.90
53844;DHT22;39744;53.314;5.710;2023-02-14T00:53:43;1.90;99.90
53844;DHT22;39744;53.314;5.710;2023-02-14T00:56:10;1.70;99.90
53844;DHT22;39744;53.314;5.710;2023-02-14T00:58:35;1.60;99.90
53844;DHT22;39744;53.314;5.710;2023-02-14T01:01:01;1.70;99.90
53844;DHT22;39744;53.314;5.710;2023-02-14T01:03:27;1.90;99.90
53844;DHT22;39744;53.314;5.710;2023-02-14T01:05:53;1.80;99.90
53844;DHT22;39744;53.314;5.710;2023-02-14T01:08:19;1.80;99.90
53844;DHT22;39744;53.314;5.710;2023-02-14T01:10:45;1.70;99.90
53844;DHT22;39744;53.314;5.710;2023-02-14T01:13:11;1.80;99.90
53844;DHT22;39744;53.314;5.710;2023-02-14T01:15:38;1.80;99.90
53844;DHT22;39744;53.314;5.710;2023-02-14T01:18:04;1.90;99.90
53844;DHT22;39744;53.314;5.710;2023-02-14T01:20:30;1.60;99.90
53844;DHT22;39744;53.314;5.710;2023-02-14T01:22:56;1.70;99.90
53844;DHT22;39744;53.314;5.710;2023-02-14T01:25:22;1.70;99.90
53844;DHT22;39744;53.314;5.710;2023-02-14T01:27:47;1.70;99.90
53844;DHT22;39744;53.314;5.710;2023-02-14T01:30:13;1.60;99.90
53844;DHT22;39744;53.314;5.710;2023-02-14T01:32:39;1.80;99.90
53844;DHT22;39744;53.314;5.710;2023-02-14T01:35:05;1.80;99.90
53844;DHT22;39744;53.314;5.710;2023-02-14T01:37:30;1.70;99.90
53844;DHT22;39744;53.314;5.710;2023-02-14T01:39:56;1.60;99.90
53844;DHT22;39744;53.314;5.710;2023-02-14T01:42:22;1.60;99.90
53844;DHT22;39744;53.314;5.710;2023-02-14T01:45:00;1.50;99.90
53844;DHT22;39744;53.314;5.710;2023-02-14T01:47:28;1.60;99.90
53844;DHT22;39744;53.314;5.710;2023-02-14T01:49:59;1.70;99.90
53844;DHT22;39744;53.314;5.710;2023-02-14T01:52:32;1.40;99.90
53844;DHT22;39744;53.314;5.710;2023-02-14T01:55:04;1.40;99.90
53844;DHT22;39744;53.314;5.710;2023-02-14T01:57:36;1.50;99.90
53844;DHT22;39744;53.314;5.710;2023-02-14T02:00:04;1.40;99.90
53844;DHT22;39744;53.314;5.710;2023-02-14T02:02:49;1.50;99.90
53844;DHT22;39744;53.314;5.710;2023-02-14T02:05:15;1.40;99.90
53844;DHT22;39744;53.314;5.710;2023-02-14T02:07:41;1.30;99.90
53844;DHT22;39744;53.314;5.710;2023-02-14T02:10:08;1.30;99.90
53844;DHT22;39744;53.314;5.710;2023-02-14T02:12:34;1.40;99.90
53844;DHT22;39744;53.314;5.710;2023-02-14T02:15:01;1.20;99.90
53844;DHT22;39744;53.314;5.710;2023-02-14T02:20:35;1.30;99.90
53844;DHT22;39744;53.314;5.710;2023-02-14T02:26:19;1.30;99.90
53844;DHT22;39744;53.314;5.710;2023-02-14T02:29:07;1.20;99.90
53844;DHT22;39744;53.314;5.710;2023-02-14T02:42:18;1.00;99.90
53844;DHT22;39744;53.314;5.710;2023-02-14T02:47:57;1.10;99.90
53844;DHT22;39744;53.314;5.710;2023-02-14T02:50:41;1.20;99.90
53844;DHT22;39744;53.314;5.710;2023-02-14T02:53:43;1.00;99.90
53844;DHT22;39744;53.314;5.710;2023-02-14T02:56:33;1.20;99.90
53844;DHT22;39744;53.314;5.710;2023-02-14T02:59:35;1.20;99.90
53844;DHT22;39744;53.314;5.710;2023-02-14T03:02:10;0.90;99.90
53844;DHT22;39744;53.314;5.710;2023-02-14T03:04:40;1.10;99.90
53844;DHT22;39744;53.314;5.710;2023-02-14T03:07:38;0.90;99.90
53844;DHT22;39744;53.314;5.710;2023-02-14T03:10:11;0.90;99.90
53844;DHT22;39744;53.314;5.710;2023-02-14T03:16:24;1.00;99.90
53844;DHT22;39744;53.314;5.710;2023-02-14T03:21:18;1.10;99.90
53844;DHT22;39744;53.314;5.710;2023-02-14T03:24:03;1.20;99.90
53844;DHT22;39744;53.314;5.710;2023-02-14T03:26:36;0.90;99.90
53844;DHT22;39744;53.314;5.710;2023-02-14T03:31:59;1.00;99.90
53844;DHT22;39744;53.314;5.710;2023-02-14T03:37:14;1.10;99.90
53844;DHT22;39744;53.314;5.710;2023-02-14T03:40:05;0.90;99.90
53844;DHT22;39744;53.314;5.710;2023-02-14T03:42:41;1.10;99.90
53844;DHT22;39744;53.314;5.710;2023-02-14T03:45:09;0.90;99.90
53844;DHT22;39744;53.314;5.710;2023-02-14T03:47:39;0.90;99.90
53844;DHT22;39744;53.314;5.710;2023-02-14T03:50:13;0.70;99.90
53844;DHT22;39744;53.314;5.710;2023-02-14T03:52:41;0.90;99.90
53844;DHT22;39744;53.314;5.710;2023-02-14T03:55:09;0.70;99.90
53844;DHT22;39744;53.314;5.710;2023-02-14T03:57:58;0.80;99.90
53844;DHT22;39744;53.314;5.710;2023-02-14T04:00:27;0.80;99.90
53844;DHT22;39744;53.314;5.710;2023-02-14T04:02:59;0.70;99.90
53844;DHT22;39744;53.314;5.710;2023-02-14T04:05:26;0.50;99.90
53844;DHT22;39744;53.314;5.710;2023-02-14T04:07:57;0.70;99.90
53844;DHT22;39744;53.314;5.710;2023-02-14T04:10:23;0.50;99.90
53844;DHT22;39744;53.314;5.710;2023-02-14T04:12:50;0.50;99.90
53844;DHT22;39744;53.314;5.710;2023-02-14T04:15:16;0.50;99.90
53844;DHT22;39744;53.314;5.710;2023-02-14T04:17:42;0.70;99.90
53844;DHT22;39744;53.314;5.710;2023-02-14T04:20:26;0.40;99.90
53844;DHT22;39744;53.314;5.710;2023-02-14T04:22:52;0.60;99.90
53844;DHT22;39744;53.314;5.710;2023-02-14T04:25:19;0.40;99.90
53844;DHT22;39744;53.314;5.710;2023-02-14T04:27:45;0.40;99.90
53844;DHT22;39744;53.314;5.710;2023-02-14T04:30:11;0.50;99.90
53844;DHT22;39744;53.314;5.710;2023-02-14T04:32:38;0.60;99.90
53844;DHT22;39744;53.314;5.710;2023-02-14T04:35:04;0.60;99.90
53844;DHT22;39744;53.314;5.710;2023-02-14T04:37:30;0.70;99.90
53844;DHT22;39744;53.314;5.710;2023-02-14T04:39:55;0.70;99.90
53844;DHT22;39744;53.314;5.710;2023-02-14T04:42:21;0.70;99.90
53844;DHT22;39744;53.314;5.710;2023-02-14T04:44:47;0.60;99.90
53844;DHT22;39744;53.314;5.710;2023-02-14T04:47:13;0.80;99.90
53844;DHT22;39744;53.314;5.710;2023-02-14T04:49:38;0.50;99.90
53844;DHT22;39744;53.314;5.710;2023-02-14T04:52:04;0.50;99.90
53844;DHT22;39744;53.314;5.710;2023-02-14T04:54:30;0.50;99.90
53844;DHT22;39744;53.314;5.710;2023-02-14T04:56:56;0.50;99.90
53844;DHT22;39744;53.314;5.710;2023-02-14T04:59:22;0.50;99.90
53844;DHT22;39744;53.314;5.710;2023-02-14T05:01:48;0.40;99.90
53844;DHT22;39744;53.314;5.710;2023-02-14T05:04:14;0.40;99.90
53844;DHT22;39744;53.314;5.710;2023-02-14T05:06:39;0.50;99.90
53844;DHT22;39744;53.314;5.710;2023-02-14T05:09:05;0.40;99.90
53844;DHT22;39744;53.314;5.710;2023-02-14T05:11:30;0.30;99.90
53844;DHT22;39744;53.314;5.710;2023-02-14T05:13:56;0.50;99.90
53844;DHT22;39744;53.314;5.710;2023-02-14T05:16:22;0.50;99.90
53844;DHT22;39744;53.314;5.710;2023-02-14T05:18:47;0.40;99.90
53844;DHT22;39744;53.314;5.710;2023-02-14T05:21:13;0.60;99.90
53844;DHT22;39744;53.314;5.710;2023-02-14T05:23:39;0.50;99.90
53844;DHT22;39744;53.314;5.710;2023-02-14T05:26:05;0.50;99.90
53844;DHT22;39744;53.314;5.710;2023-02-14T05:28:31;0.50;99.90
53844;DHT22;39744;53.314;5.710;2023-02-14T05:30:57;0.60;99.90
53844;DHT22;39744;53.314;5.710;2023-02-14T05:33:23;0.40;99.90
53844;DHT22;39744;53.314;5.710;2023-02-14T05:35:49;0.60;99.90
53844;DHT22;39744;53.314;5.710;2023-02-14T05:38:15;0.60;99.90
53844;DHT22;39744;53.314;5.710;2023-02-14T05:40:41;0.50;99.90
53844;DHT22;39744;53.314;5.710;2023-02-14T05:43:07;0.60;99.90
53844;DHT22;39744;53.314;5.710;2023-02-14T05:45:32;0.50;99.90
53844;DHT22;39744;53.314;5.710;2023-02-14T05:47:58;0.30;99.90
53844;DHT22;39744;53.314;5.710;2023-02-14T05:50:24;0.50;99.90
53844;DHT22;39744;53.314;5.710;2023-02-14T05:52:50;0.30;99.90
53844;DHT22;39744;53.314;5.710;2023-02-14T05:55:15;0.30;99.90
53844;DHT22;39744;53.314;5.710;2023-02-14T05:57:41;0.20;99.90
53844;DHT22;39744;53.314;5.710;2023-02-14T06:00:08;0.30;99.90
53844;DHT22;39744;53.314;5.710;2023-02-14T06:02:34;0.50;99.90
53844;DHT22;39744;53.314;5.710;2023-02-14T06:05:00;0.40;99.90
53844;DHT22;39744;53.314;5.710;2023-02-14T06:07:25;0.30;99.90
53844;DHT22;39744;53.314;5.710;2023-02-14T06:09:51;0.30;99.90
53844;DHT22;39744;53.314;5.710;2023-02-14T06:12:17;0.30;99.90
53844;DHT22;39744;53.314;5.710;2023-02-14T06:14:42;0.30;99.90
53844;DHT22;39744;53.314;5.710;2023-02-14T06:17:10;0.40;99.90
53844;DHT22;39744;53.314;5.710;2023-02-14T06:19:36;0.30;99.90
53844;DHT22;39744;53.314;5.710;2023-02-14T06:22:01;0.30;99.90
53844;DHT22;39744;53.314;5.710;2023-02-14T06:24:27;0.20;99.90
53844;DHT22;39744;53.314;5.710;2023-02-14T06:26:53;0.20;99.90
53844;DHT22;39744;53.314;5.710;2023-02-14T06:29:18;0.10;99.90
53844;DHT22;39744;53.314;5.710;2023-02-14T06:31:44;0.00;99.90
53844;DHT22;39744;53.314;5.710;2023-02-14T06:34:10;0.20;99.90
53844;DHT22;39744;53.314;5.710;2023-02-14T06:36:36;0.20;99.90
53844;DHT22;39744;53.314;5.710;2023-02-14T06:39:02;0.10;99.90
53844;DHT22;39744;53.314;5.710;2023-02-14T06:41:28;0.20;99.90
53844;DHT22;39744;53.314;5.710;2023-02-14T06:43:53;0.10;99.90
53844;DHT22;39744;53.314;5.710;2023-02-14T06:46:19;0.20;99.90
53844;DHT22;39744;53.314;5.710;2023-02-14T06:48:45;0.10;99.90
53844;DHT22;39744;53.314;5.710;2023-02-14T06:51:11;0.30;99.90
53844;DHT22;39744;53.314;5.710;2023-02-14T06:53:37;0.20;99.90
53844;DHT22;39744;53.314;5.710;2023-02-14T06:56:03;0.30;99.90
53844;DHT22;39744;53.314;5.710;2023-02-14T06:58:29;0.30;99.90
53844;DHT22;39744;53.314;5.710;2023-02-14T07:00:56;0.10;99.90
53844;DHT22;39744;53.314;5.710;2023-02-14T07:03:22;0.20;99.90
53844;DHT22;39744;53.314;5.710;2023-02-14T07:05:47;0.20;99.90
53844;DHT22;39744;53.314;5.710;2023-02-14T07:08:13;0.30;99.90
53844;DHT22;39744;53.314;5.710;2023-02-14T07:10:39;0.30;99.90
53844;DHT22;39744;53.314;5.710;2023-02-14T07:13:05;0.20;99.90
53844;DHT22;39744;53.314;5.710;2023-02-14T07:15:31;0.40;99.90
53844;DHT22;39744;53.314;5.710;2023-02-14T07:17:57;0.40;99.90
53844;DHT22;39744;53.314;5.710;2023-02-14T07:20:23;0.40;99.90
53844;DHT22;39744;53.314;5.710;2023-02-14T07:22:49;0.40;99.90
53844;DHT22;39744;53.314;5.710;2023-02-14T07:25:15;0.10;99.90
53844;DHT22;39744;53.314;5.710;2023-02-14T07:27:41;0.30;99.90
53844;DHT22;39744;53.314;5.710;2023-02-14T07:30:07;0.50;99.90
53844;DHT22;39744;53.314;5.710;2023-02-14T07:32:33;0.50;99.90
53844;DHT22;39744;53.314;5.710;2023-02-14T07:34:59;0.30;99.90
53844;DHT22;39744;53.314;5.710;2023-02-14T07:37:24;0.50;99.90
53844;DHT22;39744;53.314;5.710;2023-02-14T07:39:50;0.40;99.90
53844;DHT22;39744;53.314;5.710;2023-02-14T07:42:16;0.40;99.90
53844;DHT22;39744;53.314;5.710;2023-02-14T07:44:41;0.50;99.90
53844;DHT22;39744;53.314;5.710;2023-02-14T07:47:09;0.50;99.90
53844;DHT22;39744;53.314;5.710;2023-02-14T07:49:35;0.60;99.90
53844;DHT22;39744;53.314;5.710;2023-02-14T07:52:01;0.60;99.90
53844;DHT22;39744;53.314;5.710;2023-02-14T07:54:28;0.70;99.90
53844;DHT22;39744;53.314;5.710;2023-02-14T07:56:53;0.60;99.90
53844;DHT22;39744;53.314;5.710;2023-02-14T07:59:19;0.80;99.90
53844;DHT22;39744;53.314;5.710;2023-02-14T08:01:45;0.70;99.90
53844;DHT22;39744;53.314;5.710;2023-02-14T08:04:10;0.80;99.90
53844;DHT22;39744;53.314;5.710;2023-02-14T08:06:42;1.00;99.90
53844;DHT22;39744;53.314;5.710;2023-02-14T08:09:08;1.10;99.90
53844;DHT22;39744;53.314;5.710;2023-02-14T08:11:35;1.00;99.90
53844;DHT22;39744;53.314;5.710;2023-02-14T08:14:20;1.10;99.90
53844;DHT22;39744;53.314;5.710;2023-02-14T08:16:46;1.30;99.90
53844;DHT22;39744;53.314;5.710;2023-02-14T08:19:12;1.40;99.90
53844;DHT22;39744;53.314;5.710;2023-02-14T08:21:37;1.40;99.90
53844;DHT22;39744;53.314;5.710;2023-02-14T08:24:03;1.60;99.90
53844;DHT22;39744;53.314;5.710;2023-02-14T08:26:29;2.10;99.90
53844;DHT22;39744;53.314;5.710;2023-02-14T08:28:55;1.80;99.90
53844;DHT22;39744;53.314;5.710;2023-02-14T08:31:24;2.20;99.90
53844;DHT22;39744;53.314;5.710;2023-02-14T08:33:50;2.20;99.90
53844;DHT22;39744;53.314;5.710;2023-02-14T08:36:15;2.10;99.90
53844;DHT22;39744;53.314;5.710;2023-02-14T08:38:42;2.30;99.90
53844;DHT22;39744;53.314;5.710;2023-02-14T08:41:10;2.50;99.90
53844;DHT22;39744;53.314;5.710;2023-02-14T08:43:36;2.60;99.90
53844;DHT22;39744;53.314;5.710;2023-02-14T08:46:02;2.80;99.90
53844;DHT22;39744;53.314;5.710;2023-02-14T08:48:28;3.00;99.90
53844;DHT22;39744;53.314;5.710;2023-02-14T08:50:53;2.90;99.90
53844;DHT22;39744;53.314;5.710;2023-02-14T08:53:19;3.10;99.90
53844;DHT22;39744;53.314;5.710;2023-02-14T08:55:46;3.20;99.90
53844;DHT22;39744;53.314;5.710;2023-02-14T08:58:12;3.40;99.90
53844;DHT22;39744;53.314;5.710;2023-02-14T09:00:38;3.40;99.90
53844;DHT22;39744;53.314;5.710;2023-02-14T09:03:04;3.60;99.90
53844;DHT22;39744;53.314;5.710;2023-02-14T09:05:30;3.90;99.90
53844;DHT22;39744;53.314;5.710;2023-02-14T09:07:55;3.90;99.90
53844;DHT22;39744;53.314;5.710;2023-02-14T09:10:22;4.00;99.90
53844;DHT22;39744;53.314;5.710;2023-02-14T09:12:48;4.20;99.90
53844;DHT22;39744;53.314;5.710;2023-02-14T09:15:13;4.30;99.90
53844;DHT22;39744;53.314;5.710;2023-02-14T09:17:39;4.50;99.90
53844;DHT22;39744;53.314;5.710;2023-02-14T09:20:07;4.50;99.90
53844;DHT22;39744;53.314;5.710;2023-02-14T09:22:33;4.70;99.90
53844;DHT22;39744;53.314;5.710;2023-02-14T09:25:00;4.70;99.90
53844;DHT22;39744;53.314;5.710;2023-02-14T09:27:26;4.80;99.90
53844;DHT22;39744;53.314;5.710;2023-02-14T09:29:52;4.50;99.90
53844;DHT22;39744;53.314;5.710;2023-02-14T09:32:18;5.10;99.90
53844;DHT22;39744;53.314;5.710;2023-02-14T09:34:43;5.10;99.90
53844;DHT22;39744;53.314;5.710;2023-02-14T09:37:28;5.10;99.90
53844;DHT22;39744;53.314;5.710;2023-02-14T09:40:14;5.30;99.90
53844;DHT22;39744;53.314;5.710;2023-02-14T09:45:28;5.50;99.90
53844;DHT22;39744;53.314;5.710;2023-02-14T09:50:37;5.70;99.90
53844;DHT22;39744;53.314;5.710;2023-02-14T09:53:34;5.80;99.90
53844;DHT22;39744;53.314;5.710;2023-02-14T09:56:03;5.80;99.90
53844;DHT22;39744;53.314;5.710;2023-02-14T09:58:38;5.90;99.90
53844;DHT22;39744;53.314;5.710;2023-02-14T10:01:29;6.00;99.90
53844;DHT22;39744;53.314;5.710;2023-02-14T10:09:26;6.50;99.90
53844;DHT22;39744;53.314;5.710;2023-02-14T10:11:56;6.80;99.90
53844;DHT22;39744;53.314;5.710;2023-02-14T10:14:25;6.90;99.90
53844;DHT22;39744;53.314;5.710;2023-02-14T10:17:06;7.00;99.90
53844;DHT22;39744;53.314;5.710;2023-02-14T10:19:43;7.20;99.90
53844;DHT22;39744;53.314;5.710;2023-02-14T10:22:13;7.20;99.90
53844;DHT22;39744;53.314;5.710;2023-02-14T10:24:51;7.30;99.90
53844;DHT22;39744;53.314;5.710;2023-02-14T10:27:35;7.60;99.90
53844;DHT22;39744;53.314;5.710;2023-02-14T10:30:16;7.80;99.90
53844;DHT22;39744;53.314;5.710;2023-02-14T10:33:33;7.80;99.90
53844;DHT22;39744;53.314;5.710;2023-02-14T10:35:46;7.80;99.90
53844;DHT22;39744;53.314;5.710;2023-02-14T10:44:04;8.10;99.90
53844;DHT22;39744;53.314;5.710;2023-02-14T10:46:39;8.20;99.90
53844;DHT22;39744;53.314;5.710;2023-02-14T10:49:24;8.40;99.90
53844;DHT22;39744;53.314;5.710;2023-02-14T10:54:49;8.80;99.90
53844;DHT22;39744;53.314;5.710;2023-02-14T10:57:23;8.80;99.90
53844;DHT22;39744;53.314;5.710;2023-02-14T10:59:58;8.70;99.90
53844;DHT22;39744;53.314;5.710;2023-02-14T11:02:36;8.90;99.90
53844;DHT22;39744;53.314;5.710;2023-02-14T11:05:05;8.90;99.90
53844;DHT22;39744;53.314;5.710;2023-02-14T11:07:31;8.80;99.90
53844;DHT22;39744;53.314;5.710;2023-02-14T11:09:57;8.70;99.90
53844;DHT22;39744;53.314;5.710;2023-02-14T11:12:37;8.70;99.90
53844;DHT22;39744;53.314;5.710;2023-02-14T11:17:41;8.80;99.90
53844;DHT22;39744;53.314;5.710;2023-02-14T11:20:26;8.90;99.90
53844;DHT22;39744;53.314;5.710;2023-02-14T11:22:55;8.90;99.90
53844;DHT22;39744;53.314;5.710;2023-02-14T11:25:29;9.00;99.90
53844;DHT22;39744;53.314;5.710;2023-02-14T11:28:04;9.10;99.90
53844;DHT22;39744;53.314;5.710;2023-02-14T11:30:42;9.10;99.90
53844;DHT22;39744;53.314;5.710;2023-02-14T11:35:54;9.40;99.90
53844;DHT22;39744;53.314;5.710;2023-02-14T11:38:30;9.30;99.90
53844;DHT22;39744;53.314;5.710;2023-02-14T11:40:58;8.40;99.90
53844;DHT22;39744;53.314;5.710;2023-02-14T11:43:31;9.60;99.90
53844;DHT22;39744;53.314;5.710;2023-02-14T11:46:14;9.50;99.90
53844;DHT22;39744;53.314;5.710;2023-02-14T11:48:58;9.60;99.90
53844;DHT22;39744;53.314;5.710;2023-02-14T11:51:30;9.70;99.90
53844;DHT22;39744;53.314;5.710;2023-02-14T11:53:59;9.80;99.90
53844;DHT22;39744;53.314;5.710;2023-02-14T11:57:02;9.50;99.90
53844;DHT22;39744;53.314;5.710;2023-02-14T11:59:45;10.00;99.90
53844;DHT22;39744;53.314;5.710;2023-02-14T12:02:38;10.00;99.90
53844;DHT22;39744;53.314;5.710;2023-02-14T12:05:22;10.00;99.90
53844;DHT22;39744;53.314;5.710;2023-02-14T12:07:53;10.00;99.90
53844;DHT22;39744;53.314;5.710;2023-02-14T12:10:28;10.10;99.90
53844;DHT22;39744;53.314;5.710;2023-02-14T12:15:36;10.40;99.90
53844;DHT22;39744;53.314;5.710;2023-02-14T12:29:23;10.60;99.90
53844;DHT22;39744;53.314;5.710;2023-02-14T12:31:51;10.70;99.90
53844;DHT22;39744;53.314;5.710;2023-02-14T12:34:18;10.70;99.90
53844;DHT22;39744;53.314;5.710;2023-02-14T12:39:28;10.90;99.90
53844;DHT22;39744;53.314;5.710;2023-02-14T12:42:54;10.90;99.90
53844;DHT22;39744;53.314;5.710;2023-02-14T12:56:05;11.40;99.90
53844;DHT22;39744;53.314;5.710;2023-02-14T12:58:53;11.40;99.90
53844;DHT22;39744;53.314;5.710;2023-02-14T13:01:36;11.30;99.90
53844;DHT22;39744;53.314;5.710;2023-02-14T13:06:40;11.60;99.90
53844;DHT22;39744;53.314;5.710;2023-02-14T13:12:03;11.80;99.90
53844;DHT22;39744;53.314;5.710;2023-02-14T13:14:51;11.70;99.90
53844;DHT22;39744;53.314;5.710;2023-02-14T13:17:40;11.80;99.90
53844;DHT22;39744;53.314;5.710;2023-02-14T13:22:58;11.80;99.90
53844;DHT22;39744;53.314;5.710;2023-02-14T13:25:28;11.90;99.90
53844;DHT22;39744;53.314;5.710;2023-02-14T13:28:18;11.90;99.90
53844;DHT22;39744;53.314;5.710;2023-02-14T13:30:44;11.90;99.90
53844;DHT22;39744;53.314;5.710;2023-02-14T13:33:19;12.00;99.90
53844;DHT22;39744;53.314;5.710;2023-02-14T13:35:46;11.90;99.90
53844;DHT22;39744;53.314;5.710;2023-02-14T13:38:14;11.80;99.90
53844;DHT22;39744;53.314;5.710;2023-02-14T13:40:40;12.00;99.90
53844;DHT22;39744;53.314;5.710;2023-02-14T13:48:14;11.60;99.90
53844;DHT22;39744;53.314;5.710;2023-02-14T13:51:01;11.60;99.90
53844;DHT22;39744;53.314;5.710;2023-02-14T13:58:56;11.60;99.90
53844;DHT22;39744;53.314;5.710;2023-02-14T14:01:44;11.30;99.90
53844;DHT22;39744;53.314;5.710;2023-02-14T14:17:33;11.20;99.90
53844;DHT22;39744;53.314;5.710;2023-02-14T14:20:01;11.00;99.90
53844;DHT22;39744;53.314;5.710;2023-02-14T14:22:29;11.00;99.90
53844;DHT22;39744;53.314;5.710;2023-02-14T14:24:57;11.00;99.90
53844;DHT22;39744;53.314;5.710;2023-02-14T14:27:43;10.90;99.90
53844;DHT22;39744;53.314;5.710;2023-02-14T14:30:29;11.00;99.90
53844;DHT22;39744;53.314;5.710;2023-02-14T14:33:13;10.90;99.90
53844;DHT22;39744;53.314;5.710;2023-02-14T14:35:39;10.80;99.90
53844;DHT22;39744;53.314;5.710;2023-02-14T14:38:05;10.80;99.90
53844;DHT22;39744;53.314;5.710;2023-02-14T14:40:35;10.80;99.90
53844;DHT22;39744;53.314;5.710;2023-02-14T14:43:12;10.80;99.90
53844;DHT22;39744;53.314;5.710;2023-02-14T14:45:38;10.70;99.90
53844;DHT22;39744;53.314;5.710;2023-02-14T14:48:12;10.60;99.90
53844;DHT22;39744;53.314;5.710;2023-02-14T14:50:43;10.60;99.90
53844;DHT22;39744;53.314;5.710;2023-02-14T14:55:48;10.70;99.90
53844;DHT22;39744;53.314;5.710;2023-02-14T14:58:35;10.50;99.90
53844;DHT22;39744;53.314;5.710;2023-02-14T15:01:02;10.70;99.90
53844;DHT22;39744;53.314;5.710;2023-02-14T15:03:28;10.50;99.90
53844;DHT22;39744;53.314;5.710;2023-02-14T15:06:16;10.50;99.90
53844;DHT22;39744;53.314;5.710;2023-02-14T15:08:43;10.50;99.90
53844;DHT22;39744;53.314;5.710;2023-02-14T15:11:22;10.40;99.90
53844;DHT22;39744;53.314;5.710;2023-02-14T15:14:14;10.20;99.90
53844;DHT22;39744;53.314;5.710;2023-02-14T15:16:48;10.30;99.90
53844;DHT22;39744;53.314;5.710;2023-02-14T15:19:30;10.30;99.90
53844;DHT22;39744;53.314;5.710;2023-02-14T15:22:25;10.30;99.90
53844;DHT22;39744;53.314;5.710;2023-02-14T15:24:51;10.20;99.90
53844;DHT22;39744;53.314;5.710;2023-02-14T15:27:23;10.10;99.90
53844;DHT22;39744;53.314;5.710;2023-02-14T15:32:45;10.00;99.90
53844;DHT22;39744;53.314;5.710;2023-02-14T15:35:14;9.70;99.90
53844;DHT22;39744;53.314;5.710;2023-02-14T15:37:42;9.70;99.90
53844;DHT22;39744;53.314;5.710;2023-02-14T15:40:16;9.60;99.90
53844;DHT22;39744;53.314;5.710;2023-02-14T15:42:43;9.60;99.90
53844;DHT22;39744;53.314;5.710;2023-02-14T15:45:32;9.40;99.90
53844;DHT22;39744;53.314;5.710;2023-02-14T15:48:02;9.60;99.90
53844;DHT22;39744;53.314;5.710;2023-02-14T15:50:30;9.40;99.90
53844;DHT22;39744;53.314;5.710;2023-02-14T15:55:48;9.40;99.90
53844;DHT22;39744;53.314;5.710;2023-02-14T15:58:17;9.20;99.90
53844;DHT22;39744;53.314;5.710;2023-02-14T16:00:45;9.20;99.90
53844;DHT22;39744;53.314;5.710;2023-02-14T16:03:18;9.00;99.90
53844;DHT22;39744;53.314;5.710;2023-02-14T16:05:46;9.00;99.90
53844;DHT22;39744;53.314;5.710;2023-02-14T16:08:34;8.90;99.90
53844;DHT22;39744;53.314;5.710;2023-02-14T16:13:34;8.90;99.90
53844;DHT22;39744;53.314;5.710;2023-02-14T16:18:42;8.80;99.90
53844;DHT22;39744;53.314;5.710;2023-02-14T16:26:44;8.40;99.90
53844;DHT22;39744;53.314;5.710;2023-02-14T16:29:16;8.20;99.90
53844;DHT22;39744;53.314;5.710;2023-02-14T16:31:53;7.90;99.90
53844;DHT22;39744;53.314;5.710;2023-02-14T16:34:20;7.90;99.90
53844;DHT22;39744;53.314;5.710;2023-02-14T16:36:46;7.80;99.90
53844;DHT22;39744;53.314;5.710;2023-02-14T16:39:17;7.80;99.90
53844;DHT22;39744;53.314;5.710;2023-02-14T16:41:45;7.70;99.90
53844;DHT22;39744;53.314;5.710;2023-02-14T16:44:13;7.70;99.90
53844;DHT22;39744;53.314;5.710;2023-02-14T16:46:39;7.50;99.90
53844;DHT22;39744;53.314;5.710;2023-02-14T16:49:05;7.50;99.90
53844;DHT22;39744;53.314;5.710;2023-02-14T16:51:33;7.40;99.90
53844;DHT22;39744;53.314;5.710;2023-02-14T16:54:02;7.30;99.90
53844;DHT22;39744;53.314;5.710;2023-02-14T16:56:34;7.30;99.90
53844;DHT22;39744;53.314;5.710;2023-02-14T16:59:00;7.20;99.90
53844;DHT22;39744;53.314;5.710;2023-02-14T17:01:26;7.00;99.90
53844;DHT22;39744;53.314;5.710;2023-02-14T17:03:52;7.00;99.90
53844;DHT22;39744;53.314;5.710;2023-02-14T17:06:23;6.90;99.90
53844;DHT22;39744;53.314;5.710;2023-02-14T17:08:52;6.80;99.90
53844;DHT22;39744;53.314;5.710;2023-02-14T17:11:19;6.80;99.90
53844;DHT22;39744;53.314;5.710;2023-02-14T17:13:45;6.70;99.90
53844;DHT22;39744;53.314;5.710;2023-02-14T17:16:12;6.70;99.90
53844;DHT22;39744;53.314;5.710;2023-02-14T17:18:41;5.80;99.90
53844;DHT22;39744;53.314;5.710;2023-02-14T17:21:08;6.40;99.90
53844;DHT22;39744;53.314;5.710;2023-02-14T17:23:34;6.40;99.90
53844;DHT22;39744;53.314;5.710;2023-02-14T17:25:59;4.60;99.90
53844;DHT22;39744;53.314;5.710;2023-02-14T17:28:25;6.30;99.90
53844;DHT22;39744;53.314;5.710;2023-02-14T17:30:52;6.20;99.90
53844;DHT22;39744;53.314;5.710;2023-02-14T17:33:18;6.20;99.90
53844;DHT22;39744;53.314;5.710;2023-02-14T17:35:45;6.20;99.90
53844;DHT22;39744;53.314;5.710;2023-02-14T17:38:11;6.00;99.90
53844;DHT22;39744;53.314;5.710;2023-02-14T17:40:37;5.90;99.90
53844;DHT22;39744;53.314;5.710;2023-02-14T17:43:03;5.80;99.90
53844;DHT22;39744;53.314;5.710;2023-02-14T17:45:29;5.70;99.90
53844;DHT22;39744;53.314;5.710;2023-02-14T17:47:54;5.70;99.90
53844;DHT22;39744;53.314;5.710;2023-02-14T17:50:20;5.60;99.90
53844;DHT22;39744;53.314;5.710;2023-02-14T17:52:46;5.60;99.90
53844;DHT22;39744;53.314;5.710;2023-02-14T17:55:12;5.50;99.90
53844;DHT22;39744;53.314;5.710;2023-02-14T17:57:38;5.60;99.90
53844;DHT22;39744;53.314;5.710;2023-02-14T18:00:06;5.40;99.90
53844;DHT22;39744;53.314;5.710;2023-02-14T18:02:32;5.50;99.90
53844;DHT22;39744;53.314;5.710;2023-02-14T18:04:58;5.30;99.90
53844;DHT22;39744;53.314;5.710;2023-02-14T18:07:24;5.20;99.90
53844;DHT22;39744;53.314;5.710;2023-02-14T18:09:50;5.20;99.90
53844;DHT22;39744;53.314;5.710;2023-02-14T18:12:16;5.20;99.90
53844;DHT22;39744;53.314;5.710;2023-02-14T18:14:42;5.20;99.90
53844;DHT22;39744;53.314;5.710;2023-02-14T18:17:08;5.20;99.90
53844;DHT22;39744;53.314;5.710;2023-02-14T18:19:35;5.10;99.90